sensor_id;sensor_type;location;lat;lon;timestamp;P1;durP1;ratioP1;P2;durP2;ratioP2
41532;SDS011;27262;-35.248;149.138;2023-09-19T00:02:09;3.88;;;2.00;;
41532;SDS011;27262;-35.248;149.138;2023-09-19T00:04:40;5.32;;;1.60;;
41532;SDS011;27262;-35.248;149.138;2023-09-19T00:07:11;4.35;;;1.88;;
41532;SDS011;27262;-35.248;149.138;2023-09-19T00:09:42;1.77;;;1.50;;
41532;SDS011;27262;-35.248;149.138;2023-09-19T00:12:12;3.38;;;1.60;;
41532;SDS011;27262;-35.248;149.138;2023-09-19T00:14:43;3.60;;;1.45;;
41532;SDS011;27262;-35.248;149.138;2023-09-19T00:17:13;3.78;;;1.33;;
41532;SDS011;27262;-35.248;149.138;2023-09-19T00:19:44;1.92;;;1.33;;
41532;SDS011;27262;-35.248;149.138;2023-09-19T00:22:15;1.67;;;1.25;;
41532;SDS011;27262;-35.248;149.138;2023-09-19T00:24:46;2.80;;;1.23;;
41532;SDS011;27262;-35.248;149.138;2023-09-19T00:27:16;2.13;;;1.60;;
41532;SDS011;27262;-35.248;149.138;2023-09-19T00:29:47;1.13;;;1.02;;
41532;SDS011;27262;-35.248;149.138;2023-09-19T00:32:17;2.67;;;1.58;;
41532;SDS011;27262;-35.248;149.138;2023-09-19T00:34:47;1.40;;;1.30;;
41532;SDS011;27262;-35.248;149.138;2023-09-19T00:37:18;1.40;;;1.20;;
41532;SDS011;27262;-35.248;149.138;2023-09-19T00:39:48;1.60;;;0.95;;
41532;SDS011;27262;-35.248;149.138;2023-09-19T00:42:19;1.98;;;1.17;;
41532;SDS011;27262;-35.248;149.138;2023-09-19T00:44:50;1.00;;;0.77;;
41532;SDS011;27262;-35.248;149.138;2023-09-19T00:47:20;2.17;;;1.00;;
41532;SDS011;27262;-35.248;149.138;2023-09-19T00:49:51;2.08;;;1.13;;
41532;SDS011;27262;-35.248;149.138;2023-09-19T00:52:22;3.05;;;1.15;;
41532;SDS011;27262;-35.248;149.138;2023-09-19T00:54:53;1.40;;;1.08;;
41532;SDS011;27262;-35.248;149.138;2023-09-19T00:57:25;1.23;;;1.00;;
41532;SDS011;27262;-35.248;149.138;2023-09-19T00:59:55;3.25;;;1.05;;
41532;SDS011;27262;-35.248;149.138;2023-09-19T01:02:27;2.33;;;0.95;;
41532;SDS011;27262;-35.248;149.138;2023-09-19T01:04:59;0.90;;;0.90;;
41532;SDS011;27262;-35.248;149.138;2023-09-19T01:07:30;1.33;;;1.00;;
41532;SDS011;27262;-35.248;149.138;2023-09-19T01:10:05;1.45;;;0.77;;
41532;SDS011;27262;-35.248;149.138;2023-09-19T01:15:35;1.98;;;1.05;;
41532;SDS011;27262;-35.248;149.138;2023-09-19T01:20:53;0.70;;;0.65;;
41532;SDS011;27262;-35.248;149.138;2023-09-19T01:31:42;0.70;;;0.70;;
41532;SDS011;27262;-35.248;149.138;2023-09-19T01:34:14;1.15;;;0.73;;
41532;SDS011;27262;-35.248;149.138;2023-09-19T01:36:44;2.17;;;0.77;;
41532;SDS011;27262;-35.248;149.138;2023-09-19T01:39:15;1.00;;;0.90;;
41532;SDS011;27262;-35.248;149.138;2023-09-19T01:42:18;1.58;;;0.80;;
41532;SDS011;27262;-35.248;149.138;2023-09-19T01:54:27;1.52;;;0.68;;
41532;SDS011;27262;-35.248;149.138;2023-09-19T01:59:41;0.82;;;0.70;;
41532;SDS011;27262;-35.248;149.138;2023-09-19T02:02:37;4.03;;;0.88;;
41532;SDS011;27262;-35.248;149.138;2023-09-19T02:05:09;1.50;;;1.30;;
41532;SDS011;27262;-35.248;149.138;2023-09-19T02:07:41;1.48;;;1.00;;
41532;SDS011;27262;-35.248;149.138;2023-09-19T02:10:11;1.80;;;0.60;;
41532;SDS011;27262;-35.248;149.138;2023-09-19T02:12:42;0.77;;;0.77;;
41532;SDS011;27262;-35.248;149.138;2023-09-19T02:15:13;1.15;;;0.80;;
41532;SDS011;27262;-35.248;149.138;2023-09-19T02:17:44;0.98;;;0.70;;
41532;SDS011;27262;-35.248;149.138;2023-09-19T02:20:14;1.50;;;1.00;;
41532;SDS011;27262;-35.248;149.138;2023-09-19T02:22:45;1.45;;;0.77;;
41532;SDS011;27262;-35.248;149.138;2023-09-19T02:25:18;3.35;;;0.80;;
41532;SDS011;27262;-35.248;149.138;2023-09-19T02:27:51;0.77;;;0.70;;
41532;SDS011;27262;-35.248;149.138;2023-09-19T02:30:23;0.73;;;0.73;;
41532;SDS011;27262;-35.248;149.138;2023-09-19T02:32:56;2.45;;;1.08;;
41532;SDS011;27262;-35.248;149.138;2023-09-19T02:35:27;3.65;;;0.77;;
41532;SDS011;27262;-35.248;149.138;2023-09-19T02:38:01;2.58;;;0.95;;
41532;SDS011;27262;-35.248;149.138;2023-09-19T02:40:34;1.27;;;0.88;;
41532;SDS011;27262;-35.248;149.138;2023-09-19T02:43:05;2.85;;;1.13;;
41532;SDS011;27262;-35.248;149.138;2023-09-19T02:45:38;2.90;;;1.02;;
41532;SDS011;27262;-35.248;149.138;2023-09-19T02:48:08;1.60;;;0.82;;
41532;SDS011;27262;-35.248;149.138;2023-09-19T02:50:40;1.02;;;0.82;;
41532;SDS011;27262;-35.248;149.138;2023-09-19T02:53:10;2.13;;;1.20;;
41532;SDS011;27262;-35.248;149.138;2023-09-19T02:55:41;0.98;;;0.90;;
41532;SDS011;27262;-35.248;149.138;2023-09-19T02:58:11;2.40;;;1.00;;
41532;SDS011;27262;-35.248;149.138;2023-09-19T03:00:42;1.20;;;0.88;;
41532;SDS011;27262;-35.248;149.138;2023-09-19T03:03:16;1.52;;;0.90;;
41532;SDS011;27262;-35.248;149.138;2023-09-19T03:05:46;1.00;;;0.90;;
41532;SDS011;27262;-35.248;149.138;2023-09-19T03:08:19;1.50;;;1.10;;
41532;SDS011;27262;-35.248;149.138;2023-09-19T03:10:50;2.45;;;1.20;;
41532;SDS011;27262;-35.248;149.138;2023-09-19T03:13:21;1.67;;;1.10;;
41532;SDS011;27262;-35.248;149.138;2023-09-19T03:15:53;1.73;;;1.00;;
41532;SDS011;27262;-35.248;149.138;2023-09-19T03:18:25;1.85;;;1.30;;
41532;SDS011;27262;-35.248;149.138;2023-09-19T03:20:55;1.20;;;1.05;;
41532;SDS011;27262;-35.248;149.138;2023-09-19T03:23:28;2.05;;;1.13;;
41532;SDS011;27262;-35.248;149.138;2023-09-19T03:25:59;1.10;;;1.00;;
41532;SDS011;27262;-35.248;149.138;2023-09-19T03:28:32;2.38;;;1.05;;
41532;SDS011;27262;-35.248;149.138;2023-09-19T03:31:05;3.42;;;1.50;;
41532;SDS011;27262;-35.248;149.138;2023-09-19T03:33:36;4.28;;;1.50;;
41532;SDS011;27262;-35.248;149.138;2023-09-19T03:36:06;2.25;;;1.40;;
41532;SDS011;27262;-35.248;149.138;2023-09-19T03:38:37;1.67;;;1.27;;
41532;SDS011;27262;-35.248;149.138;2023-09-19T03:41:07;6.03;;;1.40;;
41532;SDS011;27262;-35.248;149.138;2023-09-19T03:43:38;1.63;;;1.27;;
41532;SDS011;27262;-35.248;149.138;2023-09-19T03:46:09;2.05;;;1.60;;
41532;SDS011;27262;-35.248;149.138;2023-09-19T03:48:41;3.10;;;1.67;;
41532;SDS011;27262;-35.248;149.138;2023-09-19T03:51:12;3.65;;;1.67;;
41532;SDS011;27262;-35.248;149.138;2023-09-19T03:53:42;4.10;;;1.48;;
41532;SDS011;27262;-35.248;149.138;2023-09-19T03:56:13;2.50;;;1.70;;
41532;SDS011;27262;-35.248;149.138;2023-09-19T03:58:44;1.40;;;1.30;;
41532;SDS011;27262;-35.248;149.138;2023-09-19T04:01:14;1.55;;;1.23;;
41532;SDS011;27262;-35.248;149.138;2023-09-19T04:03:45;7.13;;;1.70;;
41532;SDS011;27262;-35.248;149.138;2023-09-19T04:06:16;3.80;;;1.60;;
41532;SDS011;27262;-35.248;149.138;2023-09-19T04:08:46;5.65;;;1.67;;
41532;SDS011;27262;-35.248;149.138;2023-09-19T04:11:17;3.97;;;1.20;;
41532;SDS011;27262;-35.248;149.138;2023-09-19T04:13:47;1.92;;;1.50;;
41532;SDS011;27262;-35.248;149.138;2023-09-19T04:16:18;2.75;;;1.48;;
41532;SDS011;27262;-35.248;149.138;2023-09-19T04:18:48;3.00;;;1.45;;
41532;SDS011;27262;-35.248;149.138;2023-09-19T04:21:18;2.20;;;1.35;;
41532;SDS011;27262;-35.248;149.138;2023-09-19T04:23:49;3.28;;;1.73;;
41532;SDS011;27262;-35.248;149.138;2023-09-19T04:26:19;3.72;;;1.70;;
41532;SDS011;27262;-35.248;149.138;2023-09-19T04:28:50;3.50;;;1.80;;
41532;SDS011;27262;-35.248;149.138;2023-09-19T04:31:20;3.47;;;1.65;;
41532;SDS011;27262;-35.248;149.138;2023-09-19T04:33:51;1.70;;;1.60;;
41532;SDS011;27262;-35.248;149.138;2023-09-19T04:36:21;1.75;;;1.65;;
41532;SDS011;27262;-35.248;149.138;2023-09-19T04:39:02;2.92;;;1.73;;
41532;SDS011;27262;-35.248;149.138;2023-09-19T04:41:36;2.33;;;1.30;;
41532;SDS011;27262;-35.248;149.138;2023-09-19T04:44:10;1.75;;;1.45;;
41532;SDS011;27262;-35.248;149.138;2023-09-19T04:46:42;3.22;;;1.38;;
41532;SDS011;27262;-35.248;149.138;2023-09-19T04:49:15;1.48;;;1.38;;
41532;SDS011;27262;-35.248;149.138;2023-09-19T04:51:46;4.50;;;1.40;;
41532;SDS011;27262;-35.248;149.138;2023-09-19T04:54:18;3.90;;;1.42;;
41532;SDS011;27262;-35.248;149.138;2023-09-19T04:56:49;1.98;;;1.75;;
41532;SDS011;27262;-35.248;149.138;2023-09-19T04:59:19;2.30;;;1.60;;
41532;SDS011;27262;-35.248;149.138;2023-09-19T05:01:49;1.77;;;1.60;;
41532;SDS011;27262;-35.248;149.138;2023-09-19T05:04:20;2.60;;;1.80;;
41532;SDS011;27262;-35.248;149.138;2023-09-19T05:06:50;2.10;;;1.40;;
41532;SDS011;27262;-35.248;149.138;2023-09-19T05:09:21;1.95;;;1.80;;
41532;SDS011;27262;-35.248;149.138;2023-09-19T05:11:54;3.28;;;2.08;;
41532;SDS011;27262;-35.248;149.138;2023-09-19T05:14:31;2.33;;;1.30;;
41532;SDS011;27262;-35.248;149.138;2023-09-19T05:17:05;2.90;;;2.17;;
41532;SDS011;27262;-35.248;149.138;2023-09-19T05:19:36;2.88;;;1.77;;
41532;SDS011;27262;-35.248;149.138;2023-09-19T05:22:07;2.20;;;1.98;;
41532;SDS011;27262;-35.248;149.138;2023-09-19T05:24:38;2.63;;;2.03;;
41532;SDS011;27262;-35.248;149.138;2023-09-19T05:27:08;3.75;;;2.00;;
41532;SDS011;27262;-35.248;149.138;2023-09-19T05:29:39;6.47;;;1.95;;
41532;SDS011;27262;-35.248;149.138;2023-09-19T05:32:11;2.08;;;1.88;;
41532;SDS011;27262;-35.248;149.138;2023-09-19T05:34:42;2.15;;;1.77;;
41532;SDS011;27262;-35.248;149.138;2023-09-19T05:37:12;2.75;;;1.65;;
41532;SDS011;27262;-35.248;149.138;2023-09-19T05:39:45;4.07;;;1.95;;
41532;SDS011;27262;-35.248;149.138;2023-09-19T05:42:16;2.05;;;1.75;;
41532;SDS011;27262;-35.248;149.138;2023-09-19T05:44:46;5.20;;;1.85;;
41532;SDS011;27262;-35.248;149.138;2023-09-19T05:47:17;2.40;;;1.80;;
41532;SDS011;27262;-35.248;149.138;2023-09-19T05:49:47;2.38;;;1.85;;
41532;SDS011;27262;-35.248;149.138;2023-09-19T05:52:19;2.78;;;1.67;;
41532;SDS011;27262;-35.248;149.138;2023-09-19T05:54:51;2.30;;;1.52;;
41532;SDS011;27262;-35.248;149.138;2023-09-19T05:57:21;2.95;;;2.10;;
41532;SDS011;27262;-35.248;149.138;2023-09-19T05:59:53;3.13;;;1.67;;
41532;SDS011;27262;-35.248;149.138;2023-09-19T06:02:24;2.95;;;1.77;;
41532;SDS011;27262;-35.248;149.138;2023-09-19T06:04:58;3.97;;;1.80;;
41532;SDS011;27262;-35.248;149.138;2023-09-19T06:07:28;1.92;;;1.73;;
41532;SDS011;27262;-35.248;149.138;2023-09-19T06:10:05;2.15;;;1.80;;
41532;SDS011;27262;-35.248;149.138;2023-09-19T06:12:40;1.77;;;1.60;;
41532;SDS011;27262;-35.248;149.138;2023-09-19T06:15:15;1.75;;;1.65;;
41532;SDS011;27262;-35.248;149.138;2023-09-19T06:17:47;3.00;;;1.98;;
41532;SDS011;27262;-35.248;149.138;2023-09-19T06:20:19;4.35;;;1.77;;
41532;SDS011;27262;-35.248;149.138;2023-09-19T06:22:51;3.15;;;2.13;;
41532;SDS011;27262;-35.248;149.138;2023-09-19T06:25:22;2.00;;;1.70;;
41532;SDS011;27262;-35.248;149.138;2023-09-19T06:27:52;2.20;;;1.52;;
41532;SDS011;27262;-35.248;149.138;2023-09-19T06:30:24;3.58;;;1.60;;
41532;SDS011;27262;-35.248;149.138;2023-09-19T06:32:58;2.50;;;1.80;;
41532;SDS011;27262;-35.248;149.138;2023-09-19T06:35:29;3.58;;;2.30;;
41532;SDS011;27262;-35.248;149.138;2023-09-19T06:38:03;2.53;;;2.20;;
41532;SDS011;27262;-35.248;149.138;2023-09-19T06:40:34;2.03;;;1.75;;
41532;SDS011;27262;-35.248;149.138;2023-09-19T06:43:05;5.05;;;1.98;;
41532;SDS011;27262;-35.248;149.138;2023-09-19T06:45:35;6.00;;;1.90;;
41532;SDS011;27262;-35.248;149.138;2023-09-19T06:48:06;5.18;;;1.95;;
41532;SDS011;27262;-35.248;149.138;2023-09-19T06:50:38;4.22;;;2.25;;
41532;SDS011;27262;-35.248;149.138;2023-09-19T06:53:09;4.22;;;1.98;;
41532;SDS011;27262;-35.248;149.138;2023-09-19T06:55:40;5.70;;;2.40;;
41532;SDS011;27262;-35.248;149.138;2023-09-19T06:58:12;4.05;;;1.95;;
41532;SDS011;27262;-35.248;149.138;2023-09-19T07:00:45;4.97;;;1.90;;
41532;SDS011;27262;-35.248;149.138;2023-09-19T07:03:15;3.90;;;2.20;;
41532;SDS011;27262;-35.248;149.138;2023-09-19T07:05:50;3.05;;;2.13;;
41532;SDS011;27262;-35.248;149.138;2023-09-19T07:08:21;2.95;;;2.10;;
41532;SDS011;27262;-35.248;149.138;2023-09-19T07:11:10;2.45;;;2.20;;
41532;SDS011;27262;-35.248;149.138;2023-09-19T07:13:59;4.97;;;2.05;;
41532;SDS011;27262;-35.248;149.138;2023-09-19T07:16:48;4.05;;;2.08;;
41532;SDS011;27262;-35.248;149.138;2023-09-19T07:19:19;5.80;;;2.30;;
41532;SDS011;27262;-35.248;149.138;2023-09-19T07:21:50;4.45;;;2.25;;
41532;SDS011;27262;-35.248;149.138;2023-09-19T07:24:21;3.70;;;2.15;;
41532;SDS011;27262;-35.248;149.138;2023-09-19T07:26:51;2.55;;;2.00;;
41532;SDS011;27262;-35.248;149.138;2023-09-19T07:29:22;4.25;;;2.30;;
41532;SDS011;27262;-35.248;149.138;2023-09-19T07:31:53;3.25;;;1.70;;
41532;SDS011;27262;-35.248;149.138;2023-09-19T07:34:26;8.23;;;2.20;;
41532;SDS011;27262;-35.248;149.138;2023-09-19T07:36:57;3.00;;;1.92;;
41532;SDS011;27262;-35.248;149.138;2023-09-19T07:39:27;3.40;;;1.90;;
41532;SDS011;27262;-35.248;149.138;2023-09-19T07:41:58;2.88;;;2.13;;
41532;SDS011;27262;-35.248;149.138;2023-09-19T07:44:28;4.57;;;2.30;;
41532;SDS011;27262;-35.248;149.138;2023-09-19T07:46:59;2.33;;;2.13;;
41532;SDS011;27262;-35.248;149.138;2023-09-19T07:49:31;3.67;;;2.00;;
41532;SDS011;27262;-35.248;149.138;2023-09-19T07:52:03;6.78;;;2.15;;
41532;SDS011;27262;-35.248;149.138;2023-09-19T07:54:34;3.20;;;2.03;;
41532;SDS011;27262;-35.248;149.138;2023-09-19T07:57:07;3.03;;;2.20;;
41532;SDS011;27262;-35.248;149.138;2023-09-19T07:59:37;2.10;;;1.90;;
41532;SDS011;27262;-35.248;149.138;2023-09-19T08:02:10;3.22;;;2.05;;
41532;SDS011;27262;-35.248;149.138;2023-09-19T08:04:47;3.10;;;2.00;;
41532;SDS011;27262;-35.248;149.138;2023-09-19T08:07:17;6.28;;;2.17;;
41532;SDS011;27262;-35.248;149.138;2023-09-19T08:09:48;4.68;;;2.30;;
41532;SDS011;27262;-35.248;149.138;2023-09-19T08:12:18;3.45;;;2.00;;
41532;SDS011;27262;-35.248;149.138;2023-09-19T08:14:53;3.03;;;2.17;;
41532;SDS011;27262;-35.248;149.138;2023-09-19T08:17:24;5.75;;;2.58;;
41532;SDS011;27262;-35.248;149.138;2023-09-19T08:19:54;8.23;;;4.45;;
41532;SDS011;27262;-35.248;149.138;2023-09-19T08:22:25;18.58;;;7.53;;
41532;SDS011;27262;-35.248;149.138;2023-09-19T08:24:56;28.67;;;11.35;;
41532;SDS011;27262;-35.248;149.138;2023-09-19T08:27:26;34.03;;;13.38;;
41532;SDS011;27262;-35.248;149.138;2023-09-19T08:29:57;35.63;;;12.90;;
41532;SDS011;27262;-35.248;149.138;2023-09-19T08:32:28;30.20;;;11.50;;
41532;SDS011;27262;-35.248;149.138;2023-09-19T08:34:58;27.45;;;11.10;;
41532;SDS011;27262;-35.248;149.138;2023-09-19T08:37:29;27.35;;;10.18;;
41532;SDS011;27262;-35.248;149.138;2023-09-19T08:39:59;22.45;;;9.70;;
41532;SDS011;27262;-35.248;149.138;2023-09-19T08:42:30;23.50;;;9.27;;
41532;SDS011;27262;-35.248;149.138;2023-09-19T08:45:00;21.80;;;9.07;;
41532;SDS011;27262;-35.248;149.138;2023-09-19T08:47:37;16.10;;;8.27;;
41532;SDS011;27262;-35.248;149.138;2023-09-19T08:50:31;18.52;;;7.60;;
41532;SDS011;27262;-35.248;149.138;2023-09-19T08:53:05;15.32;;;6.70;;
41532;SDS011;27262;-35.248;149.138;2023-09-19T08:55:43;18.77;;;7.45;;
41532;SDS011;27262;-35.248;149.138;2023-09-19T08:58:17;17.92;;;7.30;;
41532;SDS011;27262;-35.248;149.138;2023-09-19T09:00:52;17.08;;;7.15;;
41532;SDS011;27262;-35.248;149.138;2023-09-19T09:03:25;16.90;;;7.32;;
41532;SDS011;27262;-35.248;149.138;2023-09-19T09:06:01;16.83;;;7.55;;
41532;SDS011;27262;-35.248;149.138;2023-09-19T09:08:32;15.18;;;6.90;;
41532;SDS011;27262;-35.248;149.138;2023-09-19T09:11:02;17.08;;;7.88;;
41532;SDS011;27262;-35.248;149.138;2023-09-19T09:13:39;12.05;;;6.75;;
41532;SDS011;27262;-35.248;149.138;2023-09-19T09:16:10;14.98;;;6.40;;
41532;SDS011;27262;-35.248;149.138;2023-09-19T09:18:42;18.65;;;6.45;;
41532;SDS011;27262;-35.248;149.138;2023-09-19T09:21:12;10.95;;;5.63;;
41532;SDS011;27262;-35.248;149.138;2023-09-19T09:23:44;10.48;;;5.25;;
41532;SDS011;27262;-35.248;149.138;2023-09-19T09:26:14;10.15;;;6.22;;
41532;SDS011;27262;-35.248;149.138;2023-09-19T09:28:45;11.98;;;5.93;;
41532;SDS011;27262;-35.248;149.138;2023-09-19T09:31:23;9.80;;;5.97;;
41532;SDS011;27262;-35.248;149.138;2023-09-19T09:33:55;10.98;;;5.80;;
41532;SDS011;27262;-35.248;149.138;2023-09-19T09:36:33;11.30;;;6.03;;
41532;SDS011;27262;-35.248;149.138;2023-09-19T09:39:05;9.63;;;6.13;;
41532;SDS011;27262;-35.248;149.138;2023-09-19T09:41:53;8.77;;;5.50;;
41532;SDS011;27262;-35.248;149.138;2023-09-19T09:44:24;9.10;;;5.75;;
41532;SDS011;27262;-35.248;149.138;2023-09-19T09:46:56;9.77;;;4.78;;
41532;SDS011;27262;-35.248;149.138;2023-09-19T09:49:49;10.43;;;6.10;;
41532;SDS011;27262;-35.248;149.138;2023-09-19T09:52:22;9.23;;;5.65;;
41532;SDS011;27262;-35.248;149.138;2023-09-19T09:54:59;8.65;;;4.93;;
41532;SDS011;27262;-35.248;149.138;2023-09-19T09:57:34;10.85;;;5.63;;
41532;SDS011;27262;-35.248;149.138;2023-09-19T10:00:05;9.27;;;5.65;;
41532;SDS011;27262;-35.248;149.138;2023-09-19T10:02:38;8.27;;;5.20;;
41532;SDS011;27262;-35.248;149.138;2023-09-19T10:07:56;13.82;;;5.03;;
41532;SDS011;27262;-35.248;149.138;2023-09-19T10:10:59;10.70;;;5.15;;
41532;SDS011;27262;-35.248;149.138;2023-09-19T10:13:53;14.30;;;5.05;;
41532;SDS011;27262;-35.248;149.138;2023-09-19T10:16:46;8.48;;;5.15;;
41532;SDS011;27262;-35.248;149.138;2023-09-19T10:19:21;7.95;;;4.93;;
41532;SDS011;27262;-35.248;149.138;2023-09-19T10:22:02;7.95;;;4.93;;
41532;SDS011;27262;-35.248;149.138;2023-09-19T10:24:37;9.45;;;5.05;;
41532;SDS011;27262;-35.248;149.138;2023-09-19T10:27:28;9.98;;;5.30;;
41532;SDS011;27262;-35.248;149.138;2023-09-19T10:30:06;9.75;;;4.90;;
41532;SDS011;27262;-35.248;149.138;2023-09-19T10:32:39;7.50;;;4.88;;
41532;SDS011;27262;-35.248;149.138;2023-09-19T10:35:11;7.00;;;4.40;;
41532;SDS011;27262;-35.248;149.138;2023-09-19T10:37:44;7.22;;;4.10;;
41532;SDS011;27262;-35.248;149.138;2023-09-19T10:40:18;9.20;;;4.53;;
41532;SDS011;27262;-35.248;149.138;2023-09-19T10:42:50;8.95;;;4.88;;
41532;SDS011;27262;-35.248;149.138;2023-09-19T10:45:21;6.47;;;4.65;;
41532;SDS011;27262;-35.248;149.138;2023-09-19T10:47:55;7.35;;;4.32;;
41532;SDS011;27262;-35.248;149.138;2023-09-19T10:50:26;4.63;;;3.90;;
41532;SDS011;27262;-35.248;149.138;2023-09-19T10:53:04;5.38;;;4.20;;
41532;SDS011;27262;-35.248;149.138;2023-09-19T10:55:37;7.70;;;4.65;;
41532;SDS011;27262;-35.248;149.138;2023-09-19T10:58:09;14.57;;;4.28;;
41532;SDS011;27262;-35.248;149.138;2023-09-19T11:03:44;8.07;;;4.78;;
41532;SDS011;27262;-35.248;149.138;2023-09-19T11:06:18;7.25;;;4.20;;
41532;SDS011;27262;-35.248;149.138;2023-09-19T11:30:46;6.72;;;3.78;;
41532;SDS011;27262;-35.248;149.138;2023-09-19T11:33:21;6.05;;;3.80;;
41532;SDS011;27262;-35.248;149.138;2023-09-19T11:36:15;4.38;;;3.25;;
41532;SDS011;27262;-35.248;149.138;2023-09-19T11:46:34;3.63;;;3.25;;
41532;SDS011;27262;-35.248;149.138;2023-09-19T11:49:31;3.92;;;2.70;;
41532;SDS011;27262;-35.248;149.138;2023-09-19T11:52:02;3.17;;;2.65;;
41532;SDS011;27262;-35.248;149.138;2023-09-19T11:54:38;2.25;;;2.05;;
41532;SDS011;27262;-35.248;149.138;2023-09-19T11:57:11;2.40;;;2.20;;
41532;SDS011;27262;-35.248;149.138;2023-09-19T11:59:51;3.60;;;2.80;;
41532;SDS011;27262;-35.248;149.138;2023-09-19T12:02:34;3.08;;;2.53;;
41532;SDS011;27262;-35.248;149.138;2023-09-19T12:05:12;3.58;;;2.80;;
41532;SDS011;27262;-35.248;149.138;2023-09-19T12:07:43;5.82;;;2.33;;
41532;SDS011;27262;-35.248;149.138;2023-09-19T12:10:16;3.33;;;2.50;;
41532;SDS011;27262;-35.248;149.138;2023-09-19T12:12:50;4.75;;;2.20;;
41532;SDS011;27262;-35.248;149.138;2023-09-19T12:15:25;2.63;;;2.00;;
41532;SDS011;27262;-35.248;149.138;2023-09-19T12:18:02;2.78;;;2.20;;
41532;SDS011;27262;-35.248;149.138;2023-09-19T12:20:43;2.78;;;1.90;;
41532;SDS011;27262;-35.248;149.138;2023-09-19T12:23:19;2.47;;;2.28;;
41532;SDS011;27262;-35.248;149.138;2023-09-19T12:25:49;2.22;;;1.88;;
41532;SDS011;27262;-35.248;149.138;2023-09-19T12:28:23;2.97;;;2.15;;
41532;SDS011;27262;-35.248;149.138;2023-09-19T12:31:07;2.00;;;1.80;;
41532;SDS011;27262;-35.248;149.138;2023-09-19T12:33:38;2.17;;;1.85;;
41532;SDS011;27262;-35.248;149.138;2023-09-19T12:36:24;2.05;;;1.67;;
41532;SDS011;27262;-35.248;149.138;2023-09-19T12:38:58;2.25;;;1.75;;
41532;SDS011;27262;-35.248;149.138;2023-09-19T12:41:29;1.40;;;1.30;;
41532;SDS011;27262;-35.248;149.138;2023-09-19T12:43:59;1.83;;;1.73;;
41532;SDS011;27262;-35.248;149.138;2023-09-19T12:46:31;1.40;;;1.30;;
41532;SDS011;27262;-35.248;149.138;2023-09-19T12:49:17;2.08;;;1.48;;
41532;SDS011;27262;-35.248;149.138;2023-09-19T12:51:48;1.65;;;1.40;;
41532;SDS011;27262;-35.248;149.138;2023-09-19T12:54:24;1.92;;;1.70;;
41532;SDS011;27262;-35.248;149.138;2023-09-19T12:56:55;2.15;;;1.63;;
41532;SDS011;27262;-35.248;149.138;2023-09-19T12:59:29;1.88;;;1.42;;
41532;SDS011;27262;-35.248;149.138;2023-09-19T13:02:04;2.33;;;1.40;;
41532;SDS011;27262;-35.248;149.138;2023-09-19T13:04:36;1.80;;;1.27;;
41532;SDS011;27262;-35.248;149.138;2023-09-19T13:07:39;2.05;;;1.30;;
41532;SDS011;27262;-35.248;149.138;2023-09-19T13:10:13;1.52;;;1.42;;
41532;SDS011;27262;-35.248;149.138;2023-09-19T13:12:44;1.90;;;1.50;;
41532;SDS011;27262;-35.248;149.138;2023-09-19T13:15:15;1.80;;;1.20;;
41532;SDS011;27262;-35.248;149.138;2023-09-19T13:17:49;1.35;;;1.25;;
41532;SDS011;27262;-35.248;149.138;2023-09-19T13:20:24;2.35;;;1.58;;
41532;SDS011;27262;-35.248;149.138;2023-09-19T13:23:00;1.80;;;1.45;;
41532;SDS011;27262;-35.248;149.138;2023-09-19T13:25:39;1.80;;;1.23;;
41532;SDS011;27262;-35.248;149.138;2023-09-19T13:28:09;2.03;;;1.40;;
41532;SDS011;27262;-35.248;149.138;2023-09-19T13:30:40;1.85;;;1.30;;
41532;SDS011;27262;-35.248;149.138;2023-09-19T13:33:12;1.33;;;1.20;;
41532;SDS011;27262;-35.248;149.138;2023-09-19T13:35:49;1.20;;;1.10;;
41532;SDS011;27262;-35.248;149.138;2023-09-19T13:38:21;2.45;;;1.25;;
41532;SDS011;27262;-35.248;149.138;2023-09-19T13:40:52;2.50;;;1.05;;
41532;SDS011;27262;-35.248;149.138;2023-09-19T13:43:23;2.05;;;1.08;;
41532;SDS011;27262;-35.248;149.138;2023-09-19T13:45:53;1.60;;;1.50;;
41532;SDS011;27262;-35.248;149.138;2023-09-19T13:48:26;1.58;;;0.90;;
41532;SDS011;27262;-35.248;149.138;2023-09-19T13:50:58;1.00;;;1.00;;
41532;SDS011;27262;-35.248;149.138;2023-09-19T13:53:29;1.63;;;1.10;;
41532;SDS011;27262;-35.248;149.138;2023-09-19T13:55:59;1.23;;;1.13;;
41532;SDS011;27262;-35.248;149.138;2023-09-19T13:58:30;1.15;;;1.05;;
41532;SDS011;27262;-35.248;149.138;2023-09-19T14:01:02;1.10;;;0.88;;
41532;SDS011;27262;-35.248;149.138;2023-09-19T14:03:32;1.60;;;1.23;;
41532;SDS011;27262;-35.248;149.138;2023-09-19T14:06:03;1.05;;;0.90;;
41532;SDS011;27262;-35.248;149.138;2023-09-19T14:08:34;1.20;;;1.00;;
41532;SDS011;27262;-35.248;149.138;2023-09-19T14:11:09;0.85;;;0.85;;
41532;SDS011;27262;-35.248;149.138;2023-09-19T14:13:39;1.50;;;1.00;;
41532;SDS011;27262;-35.248;149.138;2023-09-19T14:16:16;1.35;;;1.15;;
41532;SDS011;27262;-35.248;149.138;2023-09-19T14:18:47;1.10;;;1.00;;
41532;SDS011;27262;-35.248;149.138;2023-09-19T14:21:18;1.25;;;1.00;;
41532;SDS011;27262;-35.248;149.138;2023-09-19T14:23:48;1.30;;;1.00;;
41532;SDS011;27262;-35.248;149.138;2023-09-19T14:26:19;2.25;;;0.98;;
41532;SDS011;27262;-35.248;149.138;2023-09-19T14:28:51;1.13;;;1.02;;
41532;SDS011;27262;-35.248;149.138;2023-09-19T14:31:22;0.98;;;0.90;;
41532;SDS011;27262;-35.248;149.138;2023-09-19T14:33:57;0.93;;;0.70;;
41532;SDS011;27262;-35.248;149.138;2023-09-19T14:36:28;0.93;;;0.88;;
41532;SDS011;27262;-35.248;149.138;2023-09-19T14:38:58;0.80;;;0.80;;
41532;SDS011;27262;-35.248;149.138;2023-09-19T14:41:29;0.90;;;0.70;;
41532;SDS011;27262;-35.248;149.138;2023-09-19T14:44:01;0.88;;;0.88;;
41532;SDS011;27262;-35.248;149.138;2023-09-19T14:46:35;1.10;;;1.00;;
41532;SDS011;27262;-35.248;149.138;2023-09-19T14:49:06;0.98;;;0.93;;
41532;SDS011;27262;-35.248;149.138;2023-09-19T14:51:38;1.13;;;1.00;;
41532;SDS011;27262;-35.248;149.138;2023-09-19T14:54:09;0.80;;;0.80;;
41532;SDS011;27262;-35.248;149.138;2023-09-19T14:56:40;0.68;;;0.68;;
41532;SDS011;27262;-35.248;149.138;2023-09-19T14:59:11;1.10;;;0.95;;
41532;SDS011;27262;-35.248;149.138;2023-09-19T15:01:43;0.90;;;0.80;;
41532;SDS011;27262;-35.248;149.138;2023-09-19T15:04:13;0.80;;;0.75;;
41532;SDS011;27262;-35.248;149.138;2023-09-19T15:06:44;1.40;;;0.98;;
41532;SDS011;27262;-35.248;149.138;2023-09-19T15:09:15;0.63;;;0.63;;
41532;SDS011;27262;-35.248;149.138;2023-09-19T15:11:47;0.82;;;0.80;;
41532;SDS011;27262;-35.248;149.138;2023-09-19T15:14:18;0.88;;;0.88;;
41532;SDS011;27262;-35.248;149.138;2023-09-19T15:16:49;0.90;;;0.90;;
41532;SDS011;27262;-35.248;149.138;2023-09-19T15:19:21;0.95;;;0.88;;
41532;SDS011;27262;-35.248;149.138;2023-09-19T15:21:51;0.80;;;0.80;;
41532;SDS011;27262;-35.248;149.138;2023-09-19T15:24:22;1.00;;;0.60;;
41532;SDS011;27262;-35.248;149.138;2023-09-19T15:26:55;1.05;;;0.70;;
41532;SDS011;27262;-35.248;149.138;2023-09-19T15:29:25;1.15;;;1.05;;
41532;SDS011;27262;-35.248;149.138;2023-09-19T15:31:55;0.57;;;0.57;;
41532;SDS011;27262;-35.248;149.138;2023-09-19T15:34:30;0.80;;;0.70;;
41532;SDS011;27262;-35.248;149.138;2023-09-19T15:37:00;0.70;;;0.70;;
41532;SDS011;27262;-35.248;149.138;2023-09-19T15:39:31;0.80;;;0.70;;
41532;SDS011;27262;-35.248;149.138;2023-09-19T15:42:05;0.90;;;0.90;;
41532;SDS011;27262;-35.248;149.138;2023-09-19T15:44:35;0.80;;;0.80;;